sensor_id;sensor_type;location;lat;lon;timestamp;P1;durP1;ratioP1;P2;durP2;ratioP2
1460;SDS011;724;49.910;12.530;2022-11-23T00:01:23;0.30;;;0.20;;
1460;SDS011;724;49.910;12.530;2022-11-23T00:03:52;0.30;;;0.20;;
1460;SDS011;724;49.910;12.530;2022-11-23T00:06:21;0.40;;;0.35;;
1460;SDS011;724;49.910;12.530;2022-11-23T00:08:49;0.30;;;0.25;;
1460;SDS011;724;49.910;12.530;2022-11-23T00:11:16;0.40;;;0.30;;
1460;SDS011;724;49.910;12.530;2022-11-23T00:13:44;0.30;;;0.20;;
1460;SDS011;724;49.910;12.530;2022-11-23T00:16:14;0.30;;;0.20;;
1460;SDS011;724;49.910;12.530;2022-11-23T00:18:42;0.20;;;0.10;;
1460;SDS011;724;49.910;12.530;2022-11-23T00:21:10;0.25;;;0.15;;
1460;SDS011;724;49.910;12.530;2022-11-23T00:23:37;0.20;;;0.10;;
1460;SDS011;724;49.910;12.530;2022-11-23T00:26:05;0.28;;;0.20;;
1460;SDS011;724;49.910;12.530;2022-11-23T00:28:32;0.30;;;0.20;;
1460;SDS011;724;49.910;12.530;2022-11-23T00:31:03;0.20;;;0.10;;
1460;SDS011;724;49.910;12.530;2022-11-23T00:33:33;0.30;;;0.20;;
1460;SDS011;724;49.910;12.530;2022-11-23T00:36:00;0.20;;;0.10;;
1460;SDS011;724;49.910;12.530;2022-11-23T00:38:28;0.30;;;0.20;;
1460;SDS011;724;49.910;12.530;2022-11-23T00:40:58;0.20;;;0.10;;
1460;SDS011;724;49.910;12.530;2022-11-23T00:43:25;0.10;;;0.10;;
1460;SDS011;724;49.910;12.530;2022-11-23T00:46:02;0.20;;;0.10;;
1460;SDS011;724;49.910;12.530;2022-11-23T00:48:30;0.20;;;0.10;;
1460;SDS011;724;49.910;12.530;2022-11-23T00:51:00;0.20;;;0.10;;
1460;SDS011;724;49.910;12.530;2022-11-23T00:53:27;0.20;;;0.10;;
1460;SDS011;724;49.910;12.530;2022-11-23T00:55:56;0.30;;;0.20;;
1460;SDS011;724;49.910;12.530;2022-11-23T00:58:23;0.20;;;0.10;;
1460;SDS011;724;49.910;12.530;2022-11-23T01:00:59;0.20;;;0.10;;
1460;SDS011;724;49.910;12.530;2022-11-23T01:03:27;0.20;;;0.20;;
1460;SDS011;724;49.910;12.530;2022-11-23T01:05:55;0.30;;;0.20;;
1460;SDS011;724;49.910;12.530;2022-11-23T01:08:26;0.20;;;0.10;;
1460;SDS011;724;49.910;12.530;2022-11-23T01:10:56;0.30;;;0.20;;
1460;SDS011;724;49.910;12.530;2022-11-23T01:13:24;0.20;;;0.10;;
1460;SDS011;724;49.910;12.530;2022-11-23T01:15:51;0.17;;;0.10;;
1460;SDS011;724;49.910;12.530;2022-11-23T01:18:17;0.20;;;0.10;;
1460;SDS011;724;49.910;12.530;2022-11-23T01:20:44;0.20;;;0.20;;
1460;SDS011;724;49.910;12.530;2022-11-23T01:23:12;0.30;;;0.20;;
1460;SDS011;724;49.910;12.530;2022-11-23T01:25:39;0.50;;;0.50;;
1460;SDS011;724;49.910;12.530;2022-11-23T01:28:06;0.45;;;0.35;;
1460;SDS011;724;49.910;12.530;2022-11-23T01:30:33;0.40;;;0.30;;
1460;SDS011;724;49.910;12.530;2022-11-23T01:33:00;0.15;;;0.10;;
1460;SDS011;724;49.910;12.530;2022-11-23T01:35:27;0.20;;;0.10;;
1460;SDS011;724;49.910;12.530;2022-11-23T01:37:54;0.30;;;0.20;;
1460;SDS011;724;49.910;12.530;2022-11-23T01:40:22;0.30;;;0.20;;
1460;SDS011;724;49.910;12.530;2022-11-23T01:42:51;0.52;;;0.43;;
1460;SDS011;724;49.910;12.530;2022-11-23T01:45:29;0.10;;;0.10;;
1460;SDS011;724;49.910;12.530;2022-11-23T01:48:07;0.38;;;0.28;;
1460;SDS011;724;49.910;12.530;2022-11-23T01:50:37;0.43;;;0.32;;
1460;SDS011;724;49.910;12.530;2022-11-23T01:53:04;0.52;;;0.50;;
1460;SDS011;724;49.910;12.530;2022-11-23T01:55:32;0.40;;;0.30;;
1460;SDS011;724;49.910;12.530;2022-11-23T01:58:02;0.30;;;0.20;;
1460;SDS011;724;49.910;12.530;2022-11-23T02:00:32;0.60;;;0.55;;
1460;SDS011;724;49.910;12.530;2022-11-23T02:02:59;0.50;;;0.50;;
1460;SDS011;724;49.910;12.530;2022-11-23T02:05:27;0.45;;;0.38;;
1460;SDS011;724;49.910;12.530;2022-11-23T02:07:59;0.40;;;0.40;;
1460;SDS011;724;49.910;12.530;2022-11-23T02:10:28;0.43;;;0.35;;
1460;SDS011;724;49.910;12.530;2022-11-23T02:13:00;0.40;;;0.40;;
1460;SDS011;724;49.910;12.530;2022-11-23T02:15:28;0.40;;;0.30;;
1460;SDS011;724;49.910;12.530;2022-11-23T02:17:56;0.40;;;0.30;;
1460;SDS011;724;49.910;12.530;2022-11-23T02:20:25;0.28;;;0.20;;
1460;SDS011;724;49.910;12.530;2022-11-23T02:22:56;0.40;;;0.32;;
1460;SDS011;724;49.910;12.530;2022-11-23T02:25:34;0.20;;;0.20;;
1460;SDS011;724;49.910;12.530;2022-11-23T02:28:07;0.57;;;0.47;;
1460;SDS011;724;49.910;12.530;2022-11-23T02:30:34;0.30;;;0.30;;
1460;SDS011;724;49.910;12.530;2022-11-23T02:33:03;0.20;;;0.10;;
1460;SDS011;724;49.910;12.530;2022-11-23T02:35:31;0.22;;;0.13;;
1460;SDS011;724;49.910;12.530;2022-11-23T02:37:59;0.20;;;0.20;;
1460;SDS011;724;49.910;12.530;2022-11-23T02:40:30;0.38;;;0.28;;
1460;SDS011;724;49.910;12.530;2022-11-23T02:43:00;0.50;;;0.40;;
1460;SDS011;724;49.910;12.530;2022-11-23T02:45:30;0.70;;;0.60;;
1460;SDS011;724;49.910;12.530;2022-11-23T02:48:01;0.38;;;0.28;;
1460;SDS011;724;49.910;12.530;2022-11-23T02:50:28;0.38;;;0.30;;
1460;SDS011;724;49.910;12.530;2022-11-23T02:52:56;0.15;;;0.13;;
1460;SDS011;724;49.910;12.530;2022-11-23T02:55:22;0.20;;;0.20;;
1460;SDS011;724;49.910;12.530;2022-11-23T02:57:49;0.17;;;0.10;;
1460;SDS011;724;49.910;12.530;2022-11-23T03:00:16;0.20;;;0.10;;
1460;SDS011;724;49.910;12.530;2022-11-23T03:02:45;0.25;;;0.17;;
1460;SDS011;724;49.910;12.530;2022-11-23T03:05:11;0.22;;;0.20;;
1460;SDS011;724;49.910;12.530;2022-11-23T03:07:41;0.17;;;0.10;;
1460;SDS011;724;49.910;12.530;2022-11-23T03:10:08;0.30;;;0.30;;
1460;SDS011;724;49.910;12.530;2022-11-23T03:12:35;0.10;;;0.10;;
1460;SDS011;724;49.910;12.530;2022-11-23T03:15:02;0.30;;;0.20;;
1460;SDS011;724;49.910;12.530;2022-11-23T03:17:29;0.25;;;0.15;;
1460;SDS011;724;49.910;12.530;2022-11-23T03:19:57;0.30;;;0.20;;
1460;SDS011;724;49.910;12.530;2022-11-23T03:22:24;0.20;;;0.10;;
1460;SDS011;724;49.910;12.530;2022-11-23T03:24:52;0.10;;;0.10;;
1460;SDS011;724;49.910;12.530;2022-11-23T03:27:19;0.25;;;0.20;;
1460;SDS011;724;49.910;12.530;2022-11-23T03:29:46;0.30;;;0.20;;
1460;SDS011;724;49.910;12.530;2022-11-23T03:32:13;0.20;;;0.10;;
1460;SDS011;724;49.910;12.530;2022-11-23T03:34:40;0.30;;;0.20;;
1460;SDS011;724;49.910;12.530;2022-11-23T03:37:08;0.20;;;0.10;;
1460;SDS011;724;49.910;12.530;2022-11-23T03:39:34;0.20;;;0.10;;
1460;SDS011;724;49.910;12.530;2022-11-23T03:42:02;0.20;;;0.10;;
1460;SDS011;724;49.910;12.530;2022-11-23T03:44:30;0.15;;;0.10;;
1460;SDS011;724;49.910;12.530;2022-11-23T03:46:56;0.30;;;0.30;;
1460;SDS011;724;49.910;12.530;2022-11-23T03:49:23;0.20;;;0.10;;
1460;SDS011;724;49.910;12.530;2022-11-23T03:51:51;0.20;;;0.10;;
1460;SDS011;724;49.910;12.530;2022-11-23T03:54:19;0.20;;;0.10;;
1460;SDS011;724;49.910;12.530;2022-11-23T03:56:46;0.17;;;0.10;;
1460;SDS011;724;49.910;12.530;2022-11-23T03:59:12;0.13;;;0.10;;
1460;SDS011;724;49.910;12.530;2022-11-23T04:01:39;0.30;;;0.20;;
1460;SDS011;724;49.910;12.530;2022-11-23T04:04:06;0.20;;;0.10;;
1460;SDS011;724;49.910;12.530;2022-11-23T04:06:32;0.15;;;0.08;;
1460;SDS011;724;49.910;12.530;2022-11-23T04:08:59;0.20;;;0.10;;
1460;SDS011;724;49.910;12.530;2022-11-23T04:11:29;0.20;;;0.10;;
1460;SDS011;724;49.910;12.530;2022-11-23T04:13:55;0.20;;;0.10;;
1460;SDS011;724;49.910;12.530;2022-11-23T04:16:22;0.20;;;0.10;;
1460;SDS011;724;49.910;12.530;2022-11-23T04:18:49;0.30;;;0.20;;
1460;SDS011;724;49.910;12.530;2022-11-23T04:21:17;0.30;;;0.20;;
1460;SDS011;724;49.910;12.530;2022-11-23T04:23:43;0.30;;;0.20;;
1460;SDS011;724;49.910;12.530;2022-11-23T04:26:10;0.40;;;0.30;;
1460;SDS011;724;49.910;12.530;2022-11-23T04:28:38;0.30;;;0.20;;
1460;SDS011;724;49.910;12.530;2022-11-23T04:31:05;0.30;;;0.20;;
1460;SDS011;724;49.910;12.530;2022-11-23T04:33:32;0.30;;;0.30;;
1460;SDS011;724;49.910;12.530;2022-11-23T04:35:58;0.10;;;0.10;;
1460;SDS011;724;49.910;12.530;2022-11-23T04:38:25;0.30;;;0.20;;
1460;SDS011;724;49.910;12.530;2022-11-23T04:40:52;0.22;;;0.20;;
1460;SDS011;724;49.910;12.530;2022-11-23T04:43:19;0.20;;;0.10;;
1460;SDS011;724;49.910;12.530;2022-11-23T04:45:47;0.50;;;0.40;;
1460;SDS011;724;49.910;12.530;2022-11-23T04:48:14;0.40;;;0.30;;
1460;SDS011;724;49.910;12.530;2022-11-23T04:50:41;0.30;;;0.20;;
1460;SDS011;724;49.910;12.530;2022-11-23T04:53:08;0.30;;;0.20;;
1460;SDS011;724;49.910;12.530;2022-11-23T04:55:35;0.20;;;0.10;;
1460;SDS011;724;49.910;12.530;2022-11-23T04:58:02;0.20;;;0.10;;
1460;SDS011;724;49.910;12.530;2022-11-23T05:00:29;0.20;;;0.10;;
1460;SDS011;724;49.910;12.530;2022-11-23T05:02:59;0.20;;;0.10;;
1460;SDS011;724;49.910;12.530;2022-11-23T05:05:26;0.15;;;0.10;;
1460;SDS011;724;49.910;12.530;2022-11-23T05:07:53;0.20;;;0.10;;
1460;SDS011;724;49.910;12.530;2022-11-23T05:10:21;0.10;;;0.10;;
1460;SDS011;724;49.910;12.530;2022-11-23T05:12:48;0.20;;;0.10;;
1460;SDS011;724;49.910;12.530;2022-11-23T05:15:15;0.20;;;0.10;;
1460;SDS011;724;49.910;12.530;2022-11-23T05:17:42;0.20;;;0.10;;
1460;SDS011;724;49.910;12.530;2022-11-23T05:20:10;0.20;;;0.20;;
1460;SDS011;724;49.910;12.530;2022-11-23T05:22:37;0.20;;;0.10;;
1460;SDS011;724;49.910;12.530;2022-11-23T05:25:04;0.20;;;0.10;;
1460;SDS011;724;49.910;12.530;2022-11-23T05:27:32;0.20;;;0.10;;
1460;SDS011;724;49.910;12.530;2022-11-23T05:29:59;0.28;;;0.17;;
1460;SDS011;724;49.910;12.530;2022-11-23T05:32:27;0.20;;;0.10;;
1460;SDS011;724;49.910;12.530;2022-11-23T05:34:53;0.20;;;0.10;;
1460;SDS011;724;49.910;12.530;2022-11-23T05:37:21;0.28;;;0.17;;
1460;SDS011;724;49.910;12.530;2022-11-23T05:39:48;0.20;;;0.10;;
1460;SDS011;724;49.910;12.530;2022-11-23T05:42:15;0.00;;;0.00;;
1460;SDS011;724;49.910;12.530;2022-11-23T05:44:42;0.20;;;0.10;;
1460;SDS011;724;49.910;12.530;2022-11-23T05:47:08;0.20;;;0.10;;
1460;SDS011;724;49.910;12.530;2022-11-23T05:49:35;0.15;;;0.08;;
1460;SDS011;724;49.910;12.530;2022-11-23T05:52:03;0.20;;;0.10;;
1460;SDS011;724;49.910;12.530;2022-11-23T05:54:31;0.22;;;0.13;;
1460;SDS011;724;49.910;12.530;2022-11-23T05:56:58;0.00;;;0.00;;
1460;SDS011;724;49.910;12.530;2022-11-23T05:59:25;0.20;;;0.10;;
1460;SDS011;724;49.910;12.530;2022-11-23T06:01:51;0.20;;;0.10;;
1460;SDS011;724;49.910;12.530;2022-11-23T06:04:18;0.38;;;0.28;;
1460;SDS011;724;49.910;12.530;2022-11-23T06:06:45;0.20;;;0.10;;
1460;SDS011;724;49.910;12.530;2022-11-23T06:09:12;0.20;;;0.10;;
1460;SDS011;724;49.910;12.530;2022-11-23T06:11:41;0.30;;;0.20;;
1460;SDS011;724;49.910;12.530;2022-11-23T06:14:08;0.20;;;0.10;;
1460;SDS011;724;49.910;12.530;2022-11-23T06:16:35;0.30;;;0.20;;
1460;SDS011;724;49.910;12.530;2022-11-23T06:19:02;0.15;;;0.13;;
1460;SDS011;724;49.910;12.530;2022-11-23T06:21:29;0.30;;;0.20;;
1460;SDS011;724;49.910;12.530;2022-11-23T06:23:55;0.25;;;0.15;;
1460;SDS011;724;49.910;12.530;2022-11-23T06:26:22;0.50;;;0.40;;
1460;SDS011;724;49.910;12.530;2022-11-23T06:28:52;0.15;;;0.08;;
1460;SDS011;724;49.910;12.530;2022-11-23T06:31:19;0.20;;;0.20;;
1460;SDS011;724;49.910;12.530;2022-11-23T06:33:45;0.20;;;0.10;;
1460;SDS011;724;49.910;12.530;2022-11-23T06:36:12;0.17;;;0.10;;
1460;SDS011;724;49.910;12.530;2022-11-23T06:38:39;0.30;;;0.20;;
1460;SDS011;724;49.910;12.530;2022-11-23T06:41:06;0.20;;;0.10;;
1460;SDS011;724;49.910;12.530;2022-11-23T06:43:33;0.20;;;0.10;;
1460;SDS011;724;49.910;12.530;2022-11-23T06:46:03;0.20;;;0.10;;
1460;SDS011;724;49.910;12.530;2022-11-23T06:48:31;0.20;;;0.10;;
1460;SDS011;724;49.910;12.530;2022-11-23T06:50:58;0.30;;;0.20;;
1460;SDS011;724;49.910;12.530;2022-11-23T06:53:25;0.30;;;0.20;;
1460;SDS011;724;49.910;12.530;2022-11-23T06:55:52;0.30;;;0.20;;
1460;SDS011;724;49.910;12.530;2022-11-23T06:58:22;0.20;;;0.10;;
1460;SDS011;724;49.910;12.530;2022-11-23T07:00:49;0.30;;;0.20;;
1460;SDS011;724;49.910;12.530;2022-11-23T07:03:19;0.30;;;0.20;;
1460;SDS011;724;49.910;12.530;2022-11-23T07:05:47;0.28;;;0.17;;
1460;SDS011;724;49.910;12.530;2022-11-23T07:08:14;0.30;;;0.20;;
1460;SDS011;724;49.910;12.530;2022-11-23T07:10:41;0.25;;;0.15;;
1460;SDS011;724;49.910;12.530;2022-11-23T07:13:08;0.30;;;0.20;;
1460;SDS011;724;49.910;12.530;2022-11-23T07:15:35;0.30;;;0.20;;
1460;SDS011;724;49.910;12.530;2022-11-23T07:18:03;0.30;;;0.20;;
1460;SDS011;724;49.910;12.530;2022-11-23T07:20:31;0.30;;;0.20;;
1460;SDS011;724;49.910;12.530;2022-11-23T07:22:59;0.30;;;0.20;;
1460;SDS011;724;49.910;12.530;2022-11-23T07:25:27;0.30;;;0.20;;
1460;SDS011;724;49.910;12.530;2022-11-23T07:27:55;0.30;;;0.20;;
1460;SDS011;724;49.910;12.530;2022-11-23T07:30:22;0.30;;;0.20;;
1460;SDS011;724;49.910;12.530;2022-11-23T07:32:50;0.30;;;0.20;;
1460;SDS011;724;49.910;12.530;2022-11-23T07:35:17;0.40;;;0.30;;
1460;SDS011;724;49.910;12.530;2022-11-23T07:37:45;0.28;;;0.20;;
1460;SDS011;724;49.910;12.530;2022-11-23T07:40:12;0.60;;;0.50;;
1460;SDS011;724;49.910;12.530;2022-11-23T07:42:40;0.40;;;0.40;;
1460;SDS011;724;49.910;12.530;2022-11-23T07:45:07;0.40;;;0.40;;
1460;SDS011;724;49.910;12.530;2022-11-23T07:47:34;0.40;;;0.30;;
1460;SDS011;724;49.910;12.530;2022-11-23T07:50:01;0.30;;;0.25;;
1460;SDS011;724;49.910;12.530;2022-11-23T07:52:27;0.45;;;0.45;;
1460;SDS011;724;49.910;12.530;2022-11-23T07:54:55;0.40;;;0.30;;
1460;SDS011;724;49.910;12.530;2022-11-23T07:57:24;0.43;;;0.40;;
1460;SDS011;724;49.910;12.530;2022-11-23T07:59:50;0.57;;;0.50;;
1460;SDS011;724;49.910;12.530;2022-11-23T08:02:17;0.98;;;0.80;;
1460;SDS011;724;49.910;12.530;2022-11-23T08:04:45;0.70;;;0.55;;
1460;SDS011;724;49.910;12.530;2022-11-23T08:07:11;0.50;;;0.40;;
1460;SDS011;724;49.910;12.530;2022-11-23T08:09:38;0.47;;;0.38;;
1460;SDS011;724;49.910;12.530;2022-11-23T08:12:06;0.40;;;0.40;;
1460;SDS011;724;49.910;12.530;2022-11-23T08:14:33;0.52;;;0.43;;
1460;SDS011;724;49.910;12.530;2022-11-23T08:17:00;0.50;;;0.40;;
1460;SDS011;724;49.910;12.530;2022-11-23T08:19:27;0.30;;;0.30;;
1460;SDS011;724;49.910;12.530;2022-11-23T08:21:54;0.60;;;0.50;;
1460;SDS011;724;49.910;12.530;2022-11-23T08:24:21;0.35;;;0.25;;
1460;SDS011;724;49.910;12.530;2022-11-23T08:26:47;0.10;;;0.10;;
1460;SDS011;724;49.910;12.530;2022-11-23T08:29:15;0.40;;;0.30;;
1460;SDS011;724;49.910;12.530;2022-11-23T08:31:42;0.40;;;0.30;;
1460;SDS011;724;49.910;12.530;2022-11-23T08:34:09;0.10;;;0.10;;
1460;SDS011;724;49.910;12.530;2022-11-23T08:36:36;0.30;;;0.20;;
1460;SDS011;724;49.910;12.530;2022-11-23T08:39:03;0.20;;;0.10;;
1460;SDS011;724;49.910;12.530;2022-11-23T08:41:31;0.00;;;0.00;;
1460;SDS011;724;49.910;12.530;2022-11-23T08:43:59;0.00;;;0.00;;
1460;SDS011;724;49.910;12.530;2022-11-23T08:46:27;0.00;;;0.00;;
1460;SDS011;724;49.910;12.530;2022-11-23T08:48:53;0.20;;;0.10;;
1460;SDS011;724;49.910;12.530;2022-11-23T08:51:21;0.00;;;0.00;;
1460;SDS011;724;49.910;12.530;2022-11-23T08:53:48;0.00;;;0.00;;
1460;SDS011;724;49.910;12.530;2022-11-23T08:56:15;0.20;;;0.10;;
1460;SDS011;724;49.910;12.530;2022-11-23T08:58:42;0.00;;;0.00;;
1460;SDS011;724;49.910;12.530;2022-11-23T09:01:09;0.20;;;0.10;;
1460;SDS011;724;49.910;12.530;2022-11-23T09:03:39;0.20;;;0.10;;
1460;SDS011;724;49.910;12.530;2022-11-23T09:06:06;0.20;;;0.10;;
1460;SDS011;724;49.910;12.530;2022-11-23T09:08:33;0.20;;;0.10;;
1460;SDS011;724;49.910;12.530;2022-11-23T09:11:00;0.20;;;0.10;;
1460;SDS011;724;49.910;12.530;2022-11-23T09:13:27;0.20;;;0.10;;
1460;SDS011;724;49.910;12.530;2022-11-23T09:15:56;0.20;;;0.10;;
1460;SDS011;724;49.910;12.530;2022-11-23T09:18:23;0.20;;;0.10;;
1460;SDS011;724;49.910;12.530;2022-11-23T09:20:52;0.20;;;0.10;;
1460;SDS011;724;49.910;12.530;2022-11-23T09:23:18;0.20;;;0.10;;
1460;SDS011;724;49.910;12.530;2022-11-23T09:25:45;0.20;;;0.10;;
1460;SDS011;724;49.910;12.530;2022-11-23T09:28:14;0.20;;;0.10;;
1460;SDS011;724;49.910;12.530;2022-11-23T09:30:43;0.20;;;0.10;;
1460;SDS011;724;49.910;12.530;2022-11-23T09:33:10;0.20;;;0.10;;
1460;SDS011;724;49.910;12.530;2022-11-23T09:35:37;0.20;;;0.10;;
1460;SDS011;724;49.910;12.530;2022-11-23T09:38:05;0.20;;;0.10;;
1460;SDS011;724;49.910;12.530;2022-11-23T09:40:33;0.20;;;0.10;;
1460;SDS011;724;49.910;12.530;2022-11-23T09:45:56;0.20;;;0.10;;
1460;SDS011;724;49.910;12.530;2022-11-23T09:48:31;0.20;;;0.10;;
1460;SDS011;724;49.910;12.530;2022-11-23T09:51:15;0.15;;;0.10;;
1460;SDS011;724;49.910;12.530;2022-11-23T09:53:47;0.20;;;0.10;;
1460;SDS011;724;49.910;12.530;2022-11-23T09:56:16;0.05;;;0.03;;
1460;SDS011;724;49.910;12.530;2022-11-23T09:58:46;0.20;;;0.10;;
1460;SDS011;724;49.910;12.530;2022-11-23T10:01:15;0.20;;;0.10;;
1460;SDS011;724;49.910;12.530;2022-11-23T10:03:42;0.00;;;0.00;;
1460;SDS011;724;49.910;12.530;2022-11-23T10:06:16;0.20;;;0.10;;
1460;SDS011;724;49.910;12.530;2022-11-23T10:08:53;0.20;;;0.10;;
1460;SDS011;724;49.910;12.530;2022-11-23T10:11:37;0.20;;;0.10;;
1460;SDS011;724;49.910;12.530;2022-11-23T10:14:19;0.00;;;0.00;;
1460;SDS011;724;49.910;12.530;2022-11-23T10:17:01;0.20;;;0.10;;
1460;SDS011;724;49.910;12.530;2022-11-23T10:19:36;0.20;;;0.10;;
1460;SDS011;724;49.910;12.530;2022-11-23T10:22:19;0.20;;;0.10;;
1460;SDS011;724;49.910;12.530;2022-11-23T10:24:50;0.10;;;0.10;;
1460;SDS011;724;49.910;12.530;2022-11-23T10:27:19;0.20;;;0.10;;
1460;SDS011;724;49.910;12.530;2022-11-23T10:29:48;0.20;;;0.10;;
1460;SDS011;724;49.910;12.530;2022-11-23T10:32:19;0.30;;;0.20;;
1460;SDS011;724;49.910;12.530;2022-11-23T10:34:55;0.30;;;0.20;;
1460;SDS011;724;49.910;12.530;2022-11-23T10:37:27;0.00;;;0.00;;
1460;SDS011;724;49.910;12.530;2022-11-23T10:39:55;0.22;;;0.13;;
1460;SDS011;724;49.910;12.530;2022-11-23T10:42:23;0.10;;;0.10;;
1460;SDS011;724;49.910;12.530;2022-11-23T10:44:56;0.20;;;0.10;;
1460;SDS011;724;49.910;12.530;2022-11-23T10:47:38;0.20;;;0.10;;
1460;SDS011;724;49.910;12.530;2022-11-23T10:50:18;0.00;;;0.00;;
1460;SDS011;724;49.910;12.530;2022-11-23T10:52:51;0.00;;;0.00;;
1460;SDS011;724;49.910;12.530;2022-11-23T10:55:23;0.00;;;0.00;;
1460;SDS011;724;49.910;12.530;2022-11-23T10:57:52;0.00;;;0.00;;
1460;SDS011;724;49.910;12.530;2022-11-23T11:00:20;0.00;;;0.00;;
1460;SDS011;724;49.910;12.530;2022-11-23T11:02:48;0.15;;;0.08;;
1460;SDS011;724;49.910;12.530;2022-11-23T11:05:24;0.00;;;0.00;;
1460;SDS011;724;49.910;12.530;2022-11-23T11:07:53;0.20;;;0.10;;
1460;SDS011;724;49.910;12.530;2022-11-23T11:10:31;0.20;;;0.10;;
1460;SDS011;724;49.910;12.530;2022-11-23T11:13:01;0.00;;;0.00;;
1460;SDS011;724;49.910;12.530;2022-11-23T11:15:28;0.20;;;0.10;;
1460;SDS011;724;49.910;12.530;2022-11-23T11:17:55;0.30;;;0.20;;
1460;SDS011;724;49.910;12.530;2022-11-23T11:20:27;0.30;;;0.20;;
1460;SDS011;724;49.910;12.530;2022-11-23T11:22:57;0.40;;;0.30;;
1460;SDS011;724;49.910;12.530;2022-11-23T11:25:27;0.38;;;0.28;;
1460;SDS011;724;49.910;12.530;2022-11-23T11:27:58;0.50;;;0.40;;
1460;SDS011;724;49.910;12.530;2022-11-23T11:30:28;0.50;;;0.40;;
1460;SDS011;724;49.910;12.530;2022-11-23T11:33:04;0.50;;;0.40;;
1460;SDS011;724;49.910;12.530;2022-11-23T11:35:39;0.75;;;0.65;;
1460;SDS011;724;49.910;12.530;2022-11-23T11:38:10;4.60;;;4.30;;
1460;SDS011;724;49.910;12.530;2022-11-23T11:40:44;8.90;;;8.40;;
1460;SDS011;724;49.910;12.530;2022-11-23T11:43:15;9.70;;;9.20;;
1460;SDS011;724;49.910;12.530;2022-11-23T11:45:45;10.70;;;10.10;;
1460;SDS011;724;49.910;12.530;2022-11-23T11:48:14;10.55;;;9.98;;
1460;SDS011;724;49.910;12.530;2022-11-23T11:50:46;10.70;;;10.10;;
1460;SDS011;724;49.910;12.530;2022-11-23T11:53:16;10.10;;;9.60;;
1460;SDS011;724;49.910;12.530;2022-11-23T11:55:47;10.10;;;9.60;;
1460;SDS011;724;49.910;12.530;2022-11-23T11:58:20;9.18;;;8.68;;
1460;SDS011;724;49.910;12.530;2022-11-23T12:00:50;9.00;;;8.50;;
1460;SDS011;724;49.910;12.530;2022-11-23T12:03:26;8.70;;;8.20;;
1460;SDS011;724;49.910;12.530;2022-11-23T12:06:05;8.07;;;7.68;;
1460;SDS011;724;49.910;12.530;2022-11-23T12:08:39;7.60;;;7.20;;
1460;SDS011;724;49.910;12.530;2022-11-23T12:11:12;6.60;;;6.20;;
1460;SDS011;724;49.910;12.530;2022-11-23T12:13:41;5.90;;;5.60;;
1460;SDS011;724;49.910;12.530;2022-11-23T12:16:14;5.10;;;4.80;;
1460;SDS011;724;49.910;12.530;2022-11-23T12:21:43;4.38;;;4.07;;
1460;SDS011;724;49.910;12.530;2022-11-23T12:24:43;3.38;;;3.17;;
1460;SDS011;724;49.910;12.530;2022-11-23T12:27:22;2.90;;;2.70;;
1460;SDS011;724;49.910;12.530;2022-11-23T12:29:59;2.70;;;2.50;;
1460;SDS011;724;49.910;12.530;2022-11-23T12:32:54;2.55;;;2.35;;
1460;SDS011;724;49.910;12.530;2022-11-23T12:35:44;2.70;;;2.50;;
1460;SDS011;724;49.910;12.530;2022-11-23T12:38:32;3.10;;;2.90;;
1460;SDS011;724;49.910;12.530;2022-11-23T12:41:08;2.70;;;2.50;;
1460;SDS011;724;49.910;12.530;2022-11-23T12:46:49;2.40;;;2.20;;
1460;SDS011;724;49.910;12.530;2022-11-23T12:49:27;2.50;;;2.30;;
1460;SDS011;724;49.910;12.530;2022-11-23T12:52:03;1.48;;;1.38;;
1460;SDS011;724;49.910;12.530;2022-11-23T12:54:50;0.80;;;0.70;;
1460;SDS011;724;49.910;12.530;2022-11-23T12:57:22;0.70;;;0.60;;
1460;SDS011;724;49.910;12.530;2022-11-23T12:59:55;0.43;;;0.32;;
1460;SDS011;724;49.910;12.530;2022-11-23T13:11:25;0.00;;;0.00;;
1460;SDS011;724;49.910;12.530;2022-11-23T13:14:11;0.00;;;0.00;;
1460;SDS011;724;49.910;12.530;2022-11-23T13:16:53;0.00;;;0.00;;
1460;SDS011;724;49.910;12.530;2022-11-23T13:19:36;0.00;;;0.00;;
1460;SDS011;724;49.910;12.530;2022-11-23T13:22:13;0.00;;;0.00;;
1460;SDS011;724;49.910;12.530;2022-11-23T13:24:57;0.00;;;0.00;;
1460;SDS011;724;49.910;12.530;2022-11-23T13:27:40;0.00;;;0.00;;
1460;SDS011;724;49.910;12.530;2022-11-23T13:30:20;0.00;;;0.00;;
1460;SDS011;724;49.910;12.530;2022-11-23T13:32:52;0.00;;;0.00;;
1460;SDS011;724;49.910;12.530;2022-11-23T13:38:34;0.00;;;0.00;;
1460;SDS011;724;49.910;12.530;2022-11-23T13:41:02;0.00;;;0.00;;
1460;SDS011;724;49.910;12.530;2022-11-23T13:43:49;0.00;;;0.00;;
1460;SDS011;724;49.910;12.530;2022-11-23T13:46:19;0.00;;;0.00;;
1460;SDS011;724;49.910;12.530;2022-11-23T13:48:53;0.00;;;0.00;;
1460;SDS011;724;49.910;12.530;2022-11-23T13:51:23;0.00;;;0.00;;
1460;SDS011;724;49.910;12.530;2022-11-23T13:53:54;0.00;;;0.00;;
1460;SDS011;724;49.910;12.530;2022-11-23T13:56:30;0.00;;;0.00;;
1460;SDS011;724;49.910;12.530;2022-11-23T13:58:59;0.00;;;0.00;;
1460;SDS011;724;49.910;12.530;2022-11-23T14:01:57;0.00;;;0.00;;
1460;SDS011;724;49.910;12.530;2022-11-23T14:04:25;0.00;;;0.00;;
1460;SDS011;724;49.910;12.530;2022-11-23T14:06:53;0.00;;;0.00;;
1460;SDS011;724;49.910;12.530;2022-11-23T14:09:27;0.00;;;0.00;;
1460;SDS011;724;49.910;12.530;2022-11-23T14:12:01;0.00;;;0.00;;
1460;SDS011;724;49.910;12.530;2022-11-23T14:14:39;0.00;;;0.00;;
1460;SDS011;724;49.910;12.530;2022-11-23T14:17:18;0.00;;;0.00;;
1460;SDS011;724;49.910;12.530;2022-11-23T14:20:16;0.00;;;0.00;;
1460;SDS011;724;49.910;12.530;2022-11-23T14:22:56;0.00;;;0.00;;
1460;SDS011;724;49.910;12.530;2022-11-23T14:25:36;0.00;;;0.00;;
1460;SDS011;724;49.910;12.530;2022-11-23T14:28:16;0.00;;;0.00;;
1460;SDS011;724;49.910;12.530;2022-11-23T14:30:58;0.00;;;0.00;;
1460;SDS011;724;49.910;12.530;2022-11-23T14:33:37;0.00;;;0.00;;
1460;SDS011;724;49.910;12.530;2022-11-23T14:36:12;0.00;;;0.00;;
1460;SDS011;724;49.910;12.530;2022-11-23T14:39:03;0.00;;;0.00;;
1460;SDS011;724;49.910;12.530;2022-11-23T14:42:09;0.00;;;0.00;;
1460;SDS011;724;49.910;12.530;2022-11-23T14:44:39;0.00;;;0.00;;
1460;SDS011;724;49.910;12.530;2022-11-23T14:47:07;0.00;;;0.00;;
1460;SDS011;724;49.910;12.530;2022-11-23T14:49:36;0.00;;;0.00;;
1460;SDS011;724;49.910;12.530;2022-11-23T14:52:15;0.00;;;0.00;;
1460;SDS011;724;49.910;12.530;2022-11-23T14:54:45;0.00;;;0.00;;
1460;SDS011;724;49.910;12.530;2022-11-23T14:57:16;0.00;;;0.00;;
1460;SDS011;724;49.910;12.530;2022-11-23T14:59:45;0.00;;;0.00;;
1460;SDS011;724;49.910;12.530;2022-11-23T15:02:16;0.00;;;0.00;;
1460;SDS011;724;49.910;12.530;2022-11-23T15:04:58;0.00;;;0.00;;
1460;SDS011;724;49.910;12.530;2022-11-23T15:07:35;0.00;;;0.00;;
1460;SDS011;724;49.910;12.530;2022-11-23T15:13:18;0.00;;;0.00;;
1460;SDS011;724;49.910;12.530;2022-11-23T15:15:50;0.00;;;0.00;;
1460;SDS011;724;49.910;12.530;2022-11-23T15:18:26;0.00;;;0.00;;
1460;SDS011;724;49.910;12.530;2022-11-23T15:20:56;0.00;;;0.00;;
1460;SDS011;724;49.910;12.530;2022-11-23T15:23:29;0.00;;;0.00;;
1460;SDS011;724;49.910;12.530;2022-11-23T15:26:02;0.00;;;0.00;;
1460;SDS011;724;49.910;12.530;2022-11-23T15:28:34;0.00;;;0.00;;
1460;SDS011;724;49.910;12.530;2022-11-23T15:31:21;0.00;;;0.00;;
1460;SDS011;724;49.910;12.530;2022-11-23T15:33:57;0.00;;;0.00;;
1460;SDS011;724;49.910;12.530;2022-11-23T15:36:29;0.10;;;0.05;;
1460;SDS011;724;49.910;12.530;2022-11-23T15:39:00;0.20;;;0.10;;
1460;SDS011;724;49.910;12.530;2022-11-23T15:41:32;0.20;;;0.10;;
1460;SDS011;724;49.910;12.530;2022-11-23T15:44:00;0.20;;;0.10;;
1460;SDS011;724;49.910;12.530;2022-11-23T15:46:43;0.20;;;0.10;;
1460;SDS011;724;49.910;12.530;2022-11-23T15:49:13;0.20;;;0.10;;
1460;SDS011;724;49.910;12.530;2022-11-23T15:51:42;0.20;;;0.10;;
1460;SDS011;724;49.910;12.530;2022-11-23T15:54:12;0.20;;;0.10;;
1460;SDS011;724;49.910;12.530;2022-11-23T15:56:43;0.00;;;0.00;;
1460;SDS011;724;49.910;12.530;2022-11-23T15:59:21;0.22;;;0.13;;